Time;durP1;ratioP1;P1;durP2;ratioP2;P2;SDS_P1;SDS_P2;PMS_P1;PMS_P2;Temp;Humidity;BMP_temperature;BMP_pressure;BME280_temperature;BME280_humidity;BME280_pressure;Samples;Min_cycle;Max_cycle;Signal;HPM_P1;HPM_P2
2022/09/24 00:00:52;;;;;;;46.00;35.42;;;13.30;99.90;;;;;;5111963;28;20071;-80
2022/09/24 00:03:19;;;;;;;49.95;37.17;;;13.40;99.90;;;;;;5112065;28;20054;-79
2022/09/24 00:05:46;;;;;;;50.35;35.55;;;13.30;99.90;;;;;;5110499;28;20061;-80
2022/09/24 00:08:14;;;;;;;48.97;37.58;;;13.30;99.90;;;;;;5112341;28;20047;-80
2022/09/24 00:10:42;;;;;;;47.80;36.10;;;13.40;99.90;;;;;;5110465;28;20491;-80
2022/09/24 00:13:13;;;;;;;44.40;33.33;;;13.40;99.90;;;;;;5110946;28;20448;-80
2022/09/24 00:15:42;;;;;;;42.95;34.65;;;13.40;99.90;;;;;;5111722;28;20079;-80
2022/09/24 00:18:10;;;;;;;50.63;37.20;;;13.40;99.90;;;;;;5111332;28;20075;-81
2022/09/24 00:20:37;;;;;;;51.92;38.45;;;13.60;99.90;;;;;;5111260;28;20531;-80
2022/09/24 00:23:05;;;;;;;54.30;41.42;;;13.40;99.90;;;;;;5111465;28;20051;-80
2022/09/24 00:28:15;;;;;;;52.33;39.03;;;13.70;99.90;;;;;;5111155;28;20368;-80
2022/09/24 00:30:42;;;;;;;50.38;38.20;;;13.40;99.90;;;;;;5109754;28;20088;-81
2022/09/24 00:33:09;;;;;;;59.78;42.58;;;13.40;99.90;;;;;;5092758;28;20095;-80
2022/09/24 00:35:36;;;;;;;58.83;41.00;;;13.40;99.90;;;;;;5110582;28;20104;-79
2022/09/24 00:38:02;;;;;;;53.25;38.80;;;13.40;99.90;;;;;;5110725;28;20050;-80
2022/09/24 00:40:29;;;;;;;58.15;41.15;;;13.50;99.90;;;;;;5111331;28;20143;-80
2022/09/24 00:42:55;;;;;;;50.78;39.60;;;13.40;99.90;;;;;;5110781;28;20510;-79
2022/09/24 00:45:21;;;;;;;57.35;40.70;;;13.40;99.90;;;;;;5110934;28;20047;-80
2022/09/24 00:47:47;;;;;;;59.03;42.95;;;13.40;99.90;;;;;;5110792;28;20039;-80
2022/09/24 00:50:30;;;;;;;57.90;41.30;;;13.40;99.90;;;;;;5111041;28;20032;-80
2022/09/24 00:53:13;;;;;;;54.22;40.25;;;13.50;99.90;;;;;;5109491;28;20092;-81
2022/09/24 00:55:43;;;;;;;56.53;42.90;;;13.50;99.90;;;;;;5111015;28;20087;-80
2022/09/24 00:58:09;;;;;;;63.38;44.33;;;13.50;99.90;;;;;;5109343;28;20048;-80
2022/09/24 01:00:43;;;;;;;60.33;43.83;;;13.50;99.90;;;;;;5109323;28;20092;-80
2022/09/24 01:03:18;;;;;;;60.60;43.65;;;13.50;99.90;;;;;;5109700;28;20052;-79
2022/09/24 01:05:44;;;;;;;51.42;39.88;;;13.50;99.90;;;;;;5108903;28;20048;-80
2022/09/24 01:08:12;;;;;;;56.85;41.97;;;13.40;99.90;;;;;;5108826;28;20154;-80
2022/09/24 01:11:21;;;;;;;58.70;44.80;;;13.50;99.90;;;;;;5109306;28;20043;-80
2022/09/24 01:14:00;;;;;;;60.97;43.33;;;13.50;99.90;;;;;;5092483;28;20047;-82
2022/09/24 01:16:48;;;;;;;58.60;42.50;;;13.60;99.90;;;;;;5109371;28;20421;-80
2022/09/24 01:19:26;;;;;;;58.50;43.20;;;13.50;99.90;;;;;;5110207;28;20054;-81
2022/09/24 01:21:59;;;;;;;55.28;41.72;;;13.50;99.90;;;;;;5143360;27;20051;-81
2022/09/24 01:25:01;;;;;;;68.03;45.47;;;13.50;99.90;;;;;;5108802;28;20097;-80
2022/09/24 01:27:56;;;;;;;63.45;45.05;;;13.50;99.90;;;;;;5013961;28;20057;-78
2022/09/24 01:30:24;;;;;;;64.78;45.35;;;13.50;99.90;;;;;;5047240;28;20092;-79
2022/09/24 01:32:57;;;;;;;61.72;46.03;;;13.50;99.90;;;;;;5030836;28;20160;-80
2022/09/24 01:35:30;;;;;;;58.03;44.50;;;13.60;99.90;;;;;;5046726;28;20057;-81
2022/09/24 01:38:03;;;;;;;59.85;45.05;;;13.60;99.90;;;;;;5047258;28;20088;-81
2022/09/24 01:40:30;;;;;;;61.35;44.75;;;13.50;99.90;;;;;;5030201;28;20599;-80
2022/09/24 01:42:57;;;;;;;60.33;47.08;;;13.50;99.90;;;;;;5046726;28;20118;-80
2022/09/24 01:45:28;;;;;;;55.92;43.97;;;13.50;99.90;;;;;;5030596;28;20053;-81
2022/09/24 01:47:54;;;;;;;59.75;44.15;;;13.60;99.90;;;;;;5047127;28;20060;-81
2022/09/24 01:50:23;;;;;;;60.38;46.20;;;13.60;99.90;;;;;;5050960;28;20049;-79
2022/09/24 01:52:58;;;;;;;61.47;45.15;;;13.60;99.90;;;;;;5050853;28;20131;-80
2022/09/24 01:55:27;;;;;;;62.10;43.28;;;13.60;99.90;;;;;;5050492;28;20088;-81
2022/09/24 01:57:58;;;;;;;66.95;46.50;;;13.60;99.90;;;;;;5034382;28;20428;-81
2022/09/24 02:00:25;;;;;;;57.28;42.88;;;13.60;99.90;;;;;;5055291;27;20140;-76
2022/09/24 02:03:04;;;;;;;57.50;43.35;;;13.60;99.90;;;;;;5113569;28;20093;-80
2022/09/24 02:05:46;;;;;;;59.85;45.63;;;13.60;99.90;;;;;;5113904;28;20453;-79
2022/09/24 02:08:19;;;;;;;61.40;45.83;;;13.60;99.90;;;;;;5093569;28;20094;-82
2022/09/24 02:11:11;;;;;;;53.85;42.65;;;13.60;99.90;;;;;;5126378;27;20372;-80
2022/09/24 02:13:48;;;;;;;52.67;40.80;;;13.70;99.90;;;;;;5106218;28;20141;-80
2022/09/24 02:16:17;;;;;;;63.03;47.30;;;13.60;99.90;;;;;;5113561;28;20162;-80
2022/09/24 02:18:46;;;;;;;64.90;45.08;;;13.60;99.90;;;;;;5112318;28;20095;-80
2022/09/24 02:21:15;;;;;;;64.15;47.10;;;13.80;99.90;;;;;;5113425;28;20039;-80
2022/09/24 02:24:10;;;;;;;64.68;46.95;;;13.70;99.90;;;;;;5146746;27;20051;-81
2022/09/24 02:26:36;;;;;;;59.40;45.37;;;13.50;99.90;;;;;;5113650;28;20056;-80
2022/09/24 02:29:02;;;;;;;64.78;47.78;;;13.60;99.90;;;;;;5113478;28;20723;-81
2022/09/24 02:31:36;;;;;;;71.13;48.67;;;13.60;99.90;;;;;;5095265;28;20691;-81
2022/09/24 02:34:19;;;;;;;55.58;45.35;;;13.60;99.90;;;;;;5113133;28;20039;-81
2022/09/24 02:36:48;;;;;;;64.15;47.42;;;13.60;99.90;;;;;;5106789;28;20448;-80
2022/09/24 02:39:16;;;;;;;54.17;42.53;;;13.90;99.90;;;;;;5113407;28;20595;-78
2022/09/24 02:41:45;;;;;;;54.50;42.50;;;13.60;99.90;;;;;;5113094;28;20043;-80
2022/09/24 02:44:11;;;;;;;62.45;46.15;;;13.80;99.90;;;;;;5113059;28;20040;-79
2022/09/24 02:46:39;;;;;;;74.35;50.00;;;13.80;99.90;;;;;;5113285;28;20040;-77
2022/09/24 02:49:05;;;;;;;64.38;46.42;;;13.70;99.90;;;;;;5094654;28;20058;-79
2022/09/24 02:51:31;;;;;;;70.60;50.10;;;13.60;99.90;;;;;;5094892;28;20036;-78
2022/09/24 02:53:56;;;;;;;69.70;49.28;;;13.60;99.90;;;;;;5112723;28;20051;-78
2022/09/24 02:56:22;;;;;;;65.40;48.33;;;13.60;99.90;;;;;;5113042;28;20892;-78
2022/09/24 02:58:48;;;;;;;66.03;48.65;;;13.60;99.90;;;;;;5112419;28;20130;-83
2022/09/24 03:01:13;;;;;;;61.22;46.90;;;13.60;99.90;;;;;;5112724;28;20044;-82
2022/09/24 03:03:39;;;;;;;62.42;46.47;;;13.90;99.90;;;;;;5094157;28;20513;-80
2022/09/24 03:06:05;;;;;;;65.38;47.45;;;13.50;99.90;;;;;;5093785;28;20051;-78
2022/09/24 03:08:31;;;;;;;64.70;47.85;;;13.50;99.90;;;;;;5093842;28;20056;-80
2022/09/24 03:10:56;;;;;;;56.42;44.13;;;13.50;99.90;;;;;;5094384;28;20043;-80
2022/09/24 03:13:22;;;;;;;56.22;44.20;;;13.60;99.90;;;;;;5111968;28;20047;-81
2022/09/24 03:15:48;;;;;;;63.67;46.38;;;13.60;99.90;;;;;;5094201;28;20058;-80
2022/09/24 03:18:14;;;;;;;51.95;42.55;;;13.60;99.90;;;;;;5094022;28;20039;-81
2022/09/24 03:20:40;;;;;;;52.67;42.55;;;13.60;99.90;;;;;;5094142;28;20401;-79
2022/09/24 03:23:06;;;;;;;55.55;43.88;;;13.60;99.90;;;;;;5112524;28;20122;-78
2022/09/24 03:25:31;;;;;;;52.90;41.55;;;13.50;99.90;;;;;;5094433;28;20040;-78
2022/09/24 03:27:57;;;;;;;50.22;40.38;;;13.60;99.90;;;;;;5111861;28;20060;-79
2022/09/24 03:33:06;;;;;;;50.67;41.58;;;13.60;99.90;;;;;;5093706;28;20051;-82
2022/09/24 03:35:32;;;;;;;49.38;40.00;;;13.60;99.90;;;;;;5112273;28;20055;-84
2022/09/24 03:37:58;;;;;;;42.88;36.65;;;13.60;99.90;;;;;;5093479;28;20052;-85
2022/09/24 03:40:24;;;;;;;48.55;38.75;;;13.60;99.90;;;;;;5112261;28;20082;-83
2022/09/24 03:42:50;;;;;;;49.85;36.30;;;13.60;99.90;;;;;;5111811;28;20039;-80
2022/09/24 03:45:15;;;;;;;38.40;30.92;;;13.60;99.90;;;;;;5111484;28;20521;-82
2022/09/24 03:47:42;;;;;;;36.35;29.20;;;13.60;99.90;;;;;;5093566;28;20383;-78
2022/09/24 03:50:10;;;;;;;39.05;29.92;;;13.60;99.90;;;;;;5111561;28;20149;-78
2022/09/24 03:52:37;;;;;;;38.92;29.63;;;13.60;99.90;;;;;;5111949;28;20050;-77
2022/09/24 03:55:03;;;;;;;38.53;29.08;;;13.60;99.90;;;;;;5093559;28;20051;-84
2022/09/24 03:57:28;;;;;;;35.10;27.90;;;13.60;99.90;;;;;;5111952;28;20084;-83
2022/09/24 03:59:54;;;;;;;34.00;28.27;;;13.60;99.90;;;;;;5092862;28;20062;-80
2022/09/24 04:02:20;;;;;;;36.63;29.33;;;13.50;99.90;;;;;;5093127;28;20062;-84
2022/09/24 04:04:46;;;;;;;40.58;30.67;;;13.60;99.90;;;;;;5093498;28;20059;-87
2022/09/24 04:07:11;;;;;;;37.67;29.35;;;13.60;99.90;;;;;;5111231;28;20494;-84
2022/09/24 04:09:37;;;;;;;35.47;28.10;;;13.60;99.90;;;;;;5093153;28;20043;-83
2022/09/24 04:12:04;;;;;;;37.58;29.83;;;13.60;99.90;;;;;;5110829;28;20108;-81
2022/09/24 04:14:29;;;;;;;34.88;28.38;;;13.60;99.90;;;;;;5110897;28;20047;-87
2022/09/24 04:16:55;;;;;;;36.35;27.77;;;13.60;99.90;;;;;;5093122;28;20464;-81
2022/09/24 04:19:21;;;;;;;36.65;28.25;;;13.60;99.90;;;;;;5111161;28;20081;-87
2022/09/24 04:21:46;;;;;;;35.45;27.00;;;13.60;99.90;;;;;;5111169;28;20047;-79
2022/09/24 04:24:12;;;;;;;36.90;28.38;;;13.60;99.90;;;;;;5093516;28;20083;-84
2022/09/24 04:26:38;;;;;;;35.55;26.95;;;13.60;99.90;;;;;;5111270;28;20054;-81
2022/09/24 04:29:04;;;;;;;31.83;25.80;;;13.70;99.90;;;;;;5092771;28;20047;-80
2022/09/24 04:31:32;;;;;;;34.65;26.85;;;13.80;99.90;;;;;;5092770;28;20471;-85
2022/09/24 04:33:58;;;;;;;32.78;26.77;;;13.60;99.90;;;;;;5110996;28;20054;-82
2022/09/24 04:36:24;;;;;;;33.28;27.20;;;13.70;99.90;;;;;;5111018;28;20108;-86
2022/09/24 04:38:49;;;;;;;37.45;26.30;;;13.70;99.90;;;;;;5110941;28;20452;-82
2022/09/24 04:41:15;;;;;;;34.55;26.30;;;13.70;99.90;;;;;;5111205;28;20049;-80
2022/09/24 04:43:42;;;;;;;32.47;24.95;;;13.70;99.90;;;;;;5093003;28;20585;-87
2022/09/24 04:46:08;;;;;;;30.20;23.45;;;13.70;99.90;;;;;;5110857;28;21005;-81
2022/09/24 04:48:37;;;;;;;31.77;24.10;;;13.70;99.90;;;;;;5110863;28;20131;-80
2022/09/24 04:51:06;;;;;;;32.95;23.95;;;13.70;99.90;;;;;;5110950;28;20620;-82
2022/09/24 04:53:35;;;;;;;31.38;22.90;;;13.70;99.90;;;;;;5111312;28;20127;-85
2022/09/24 04:56:02;;;;;;;30.80;21.88;;;13.70;99.90;;;;;;5092219;28;20054;-85
2022/09/24 04:58:28;;;;;;;30.13;20.65;;;13.90;99.90;;;;;;5110623;28;20047;-82
2022/09/24 05:00:53;;;;;;;27.23;18.25;;;13.60;99.90;;;;;;5110751;28;20040;-84
2022/09/24 05:03:22;;;;;;;24.35;16.25;;;13.70;99.90;;;;;;5110195;28;20054;-77
2022/09/24 05:05:51;;;;;;;23.27;14.40;;;13.70;99.90;;;;;;5110785;28;20043;-85
2022/09/24 05:08:16;;;;;;;23.98;12.30;;;13.60;99.90;;;;;;5110401;28;20054;-87
2022/09/24 05:10:42;;;;;;;17.95;9.40;;;13.70;99.90;;;;;;5092333;28;20414;-82
2022/09/24 05:13:08;;;;;;;15.13;7.57;;;13.70;99.90;;;;;;5110218;28;20051;-83
2022/09/24 05:15:34;;;;;;;18.27;7.18;;;13.70;99.90;;;;;;5092700;28;20051;-86
2022/09/24 05:18:00;;;;;;;18.02;6.80;;;13.70;99.90;;;;;;5110097;28;20043;-81
2022/09/24 05:20:25;;;;;;;12.73;4.70;;;13.70;99.90;;;;;;5110255;28;20040;-78
2022/09/24 05:22:51;;;;;;;11.15;4.45;;;13.80;99.90;;;;;;5110282;28;20039;-84
2022/09/24 05:25:19;;;;;;;16.35;3.55;;;13.70;99.90;;;;;;5109988;28;20035;-78
2022/09/24 05:27:47;;;;;;;14.55;2.80;;;13.70;99.90;;;;;;5109906;28;20093;-78
2022/09/24 05:30:12;;;;;;;12.90;2.10;;;13.70;99.90;;;;;;5091936;28;20804;-83
2022/09/24 05:32:39;;;;;;;16.27;2.53;;;13.70;99.90;;;;;;5109565;28;20052;-78
2022/09/24 05:35:07;;;;;;;14.88;2.42;;;13.60;99.90;;;;;;5092092;28;20421;-77
2022/09/24 05:37:33;;;;;;;11.73;2.30;;;13.60;99.90;;;;;;5110208;28;20142;-87
2022/09/24 05:40:46;;;;;;;12.38;2.20;;;13.60;99.90;;;;;;5109897;28;20044;-81
2022/09/24 05:42:45;;;;;;;16.27;2.10;;;13.60;99.90;;;;;;5109912;28;20055;-77
2022/09/24 05:45:12;;;;;;;15.38;2.00;;;13.60;99.90;;;;;;5110136;28;20059;-84
2022/09/24 05:47:37;;;;;;;11.13;1.90;;;13.60;99.90;;;;;;5110114;28;20154;-89
2022/09/24 05:50:03;;;;;;;12.98;1.83;;;13.60;99.90;;;;;;5109939;28;20234;-80
2022/09/24 05:52:29;;;;;;;15.27;2.00;;;13.60;99.90;;;;;;5109933;28;20047;-88
2022/09/24 05:54:55;;;;;;;11.27;1.90;;;13.60;99.90;;;;;;5110117;28;20050;-79
2022/09/24 05:57:20;;;;;;;15.38;2.38;;;13.60;99.90;;;;;;5110027;28;20556;-78
2022/09/24 05:59:46;;;;;;;19.23;2.40;;;13.60;99.90;;;;;;5110157;28;20066;-87
2022/09/24 06:02:11;;;;;;;10.73;1.63;;;13.60;99.90;;;;;;5110011;28;20448;-88
2022/09/24 06:04:37;;;;;;;13.98;1.90;;;13.60;99.90;;;;;;5090785;28;20055;-78
2022/09/24 06:07:03;;;;;;;19.13;2.08;;;13.60;99.90;;;;;;5109865;28;20043;-84
2022/09/24 06:09:28;;;;;;;14.85;1.95;;;13.60;99.90;;;;;;5110098;28;20079;-86
2022/09/24 06:11:55;;;;;;;15.13;2.08;;;13.60;99.90;;;;;;5109988;28;20055;-82
2022/09/24 06:14:22;;;;;;;13.95;1.60;;;13.70;99.90;;;;;;5109840;28;20052;-81
2022/09/24 06:16:47;;;;;;;10.75;1.60;;;13.60;99.90;;;;;;5109734;28;20405;-79
2022/09/24 06:19:13;;;;;;;17.30;2.30;;;13.60;99.90;;;;;;5109952;28;20051;-83
2022/09/24 06:21:38;;;;;;;11.55;1.40;;;13.60;99.90;;;;;;5090986;28;20071;-85
2022/09/24 06:24:04;;;;;;;14.02;1.80;;;13.60;99.90;;;;;;5110066;28;20055;-83
2022/09/24 06:26:31;;;;;;;15.05;1.80;;;13.60;99.90;;;;;;5094045;28;20138;-86
2022/09/24 06:28:57;;;;;;;7.68;1.38;;;13.60;99.90;;;;;;5108086;28;20047;-78
2022/09/24 06:31:23;;;;;;;8.98;1.50;;;13.60;99.90;;;;;;5109775;28;20450;-81
2022/09/24 06:33:48;;;;;;;13.70;2.25;;;13.70;99.90;;;;;;5108832;28;20052;-87
2022/09/24 06:36:14;;;;;;;12.00;1.48;;;13.60;99.90;;;;;;5113548;28;20550;-81
2022/09/24 06:38:40;;;;;;;14.50;1.85;;;13.70;99.90;;;;;;5113449;28;20092;-79
2022/09/24 06:41:06;;;;;;;11.65;1.67;;;13.60;99.90;;;;;;5113435;28;20040;-87
2022/09/24 06:43:32;;;;;;;12.52;1.80;;;13.60;99.90;;;;;;5113396;28;20122;-85
2022/09/24 06:45:59;;;;;;;14.05;2.72;;;13.70;99.90;;;;;;5113313;28;20054;-78
2022/09/24 06:48:26;;;;;;;13.65;2.40;;;13.60;99.90;;;;;;5112823;28;20044;-81
2022/09/24 06:50:53;;;;;;;13.50;2.22;;;13.70;99.90;;;;;;5111084;28;20710;-88
2022/09/24 06:53:19;;;;;;;12.25;1.63;;;13.70;99.90;;;;;;5113190;28;20047;-80
2022/09/24 06:55:44;;;;;;;21.27;2.10;;;13.70;99.90;;;;;;5113129;28;20092;-79
2022/09/24 06:58:12;;;;;;;16.45;2.20;;;13.80;99.90;;;;;;5111813;28;20048;-78
2022/09/24 07:00:39;;;;;;;13.85;1.65;;;13.80;99.90;;;;;;5096293;28;20040;-77
2022/09/24 07:03:06;;;;;;;11.73;2.03;;;13.90;99.90;;;;;;5113219;28;20126;-81
2022/09/24 07:05:32;;;;;;;20.02;2.70;;;13.80;99.90;;;;;;5111851;28;20076;-83
2022/09/24 07:07:58;;;;;;;14.63;2.10;;;13.90;99.90;;;;;;5112107;28;20551;-78
2022/09/24 07:10:26;;;;;;;13.38;2.08;;;13.90;99.90;;;;;;5112946;28;20044;-81
2022/09/24 07:12:52;;;;;;;16.92;2.30;;;13.90;99.90;;;;;;5110687;28;20064;-85
2022/09/24 07:15:18;;;;;;;13.80;1.90;;;14.00;99.90;;;;;;5112763;28;20057;-85
2022/09/24 07:17:43;;;;;;;16.20;1.70;;;14.10;99.90;;;;;;5112419;28;20039;-82
2022/09/24 07:20:09;;;;;;;15.55;2.38;;;14.10;99.90;;;;;;5112704;28;20128;-75
2022/09/24 07:22:39;;;;;;;12.90;2.03;;;14.40;99.90;;;;;;5112428;28;20043;-80
2022/09/24 07:25:10;;;;;;;16.85;1.80;;;14.10;99.90;;;;;;5111233;28;20120;-81
2022/09/24 07:27:37;;;;;;;16.90;2.30;;;14.10;99.90;;;;;;5112625;28;20052;-82
2022/09/24 07:30:07;;;;;;;15.57;2.70;;;14.20;99.90;;;;;;5112462;28;20566;-86
2022/09/24 07:32:33;;;;;;;17.08;2.03;;;14.20;99.90;;;;;;5112537;28;20062;-83
2022/09/24 07:34:59;;;;;;;11.10;1.98;;;14.30;99.90;;;;;;5112425;28;20047;-78
2022/09/24 07:37:24;;;;;;;16.85;2.17;;;14.40;99.90;;;;;;5112309;28;20128;-83
2022/09/24 07:39:50;;;;;;;16.10;2.17;;;14.50;99.90;;;;;;5112294;28;20054;-83
2022/09/24 07:42:16;;;;;;;12.98;1.40;;;14.40;99.90;;;;;;5093829;28;20044;-85
2022/09/24 07:44:41;;;;;;;12.13;1.63;;;14.50;99.90;;;;;;5111989;28;20435;-88
2022/09/24 07:47:07;;;;;;;15.15;2.38;;;14.80;99.90;;;;;;5111980;28;20043;-79
2022/09/24 07:49:33;;;;;;;14.52;1.58;;;14.60;99.90;;;;;;5112198;28;20043;-81
2022/09/24 07:51:59;;;;;;;13.13;1.73;;;14.70;99.90;;;;;;5111972;28;20032;-81
2022/09/24 07:54:25;;;;;;;16.15;2.03;;;14.70;99.90;;;;;;5111676;28;20044;-81
2022/09/24 07:56:50;;;;;;;12.63;2.03;;;14.80;99.90;;;;;;5112403;28;20062;-83
2022/09/24 07:59:18;;;;;;;12.30;1.80;;;14.80;99.90;;;;;;5093584;28;20051;-85
2022/09/24 08:01:44;;;;;;;12.20;1.70;;;15.00;99.90;;;;;;5093829;28;20040;-87
2022/09/24 08:04:10;;;;;;;14.65;1.73;;;14.80;99.90;;;;;;5111882;28;20043;-86
2022/09/24 08:06:36;;;;;;;9.07;1.42;;;15.00;99.90;;;;;;5111811;28;20042;-78
2022/09/24 08:09:03;;;;;;;9.77;1.60;;;14.70;99.90;;;;;;5110789;28;20047;-83
2022/09/24 08:11:29;;;;;;;5.97;1.58;;;14.70;99.90;;;;;;5111376;28;20517;-83
2022/09/24 08:13:56;;;;;;;17.50;1.65;;;14.90;99.90;;;;;;5111500;28;20047;-83
2022/09/24 08:16:22;;;;;;;14.27;1.58;;;14.70;99.90;;;;;;5110946;28;20044;-86
2022/09/24 08:18:48;;;;;;;12.88;1.60;;;15.00;99.90;;;;;;5092187;28;20043;-86
2022/09/24 08:21:14;;;;;;;13.80;1.60;;;14.80;99.90;;;;;;5076269;28;20443;-82
2022/09/24 08:23:42;;;;;;;17.45;2.35;;;14.80;99.90;;;;;;5111475;28;20051;-85
2022/09/24 08:26:09;;;;;;;9.45;1.60;;;14.70;99.90;;;;;;5111111;28;20044;-86
2022/09/24 08:28:35;;;;;;;14.73;2.00;;;14.90;99.90;;;;;;5111371;28;20062;-83
2022/09/24 08:31:03;;;;;;;9.32;1.67;;;14.70;99.90;;;;;;5110855;28;20047;-79
2022/09/24 08:33:31;;;;;;;11.82;1.60;;;14.70;99.90;;;;;;5111301;28;20051;-83
2022/09/24 08:36:03;;;;;;;9.93;1.52;;;14.70;99.90;;;;;;5111201;28;20742;-84
2022/09/24 08:38:29;;;;;;;11.63;1.98;;;14.70;99.90;;;;;;5092947;28;20085;-84
2022/09/24 08:41:00;;;;;;;8.55;1.40;;;14.70;99.90;;;;;;5110731;28;20075;-80
2022/09/24 08:43:42;;;;;;;10.25;1.50;;;14.70;99.90;;;;;;5111041;28;20047;-83
2022/09/24 08:49:21;;;;;;;13.00;1.83;;;14.80;99.90;;;;;;5030687;28;20845;-80
2022/09/24 08:52:02;;;;;;;15.38;1.75;;;14.80;99.90;;;;;;5047219;28;20065;-82
2022/09/24 08:54:33;;;;;;;11.05;2.20;;;14.80;99.90;;;;;;5037863;28;20922;-82
2022/09/24 08:57:04;;;;;;;11.55;1.50;;;14.80;99.90;;;;;;5030349;28;20049;-86
2022/09/24 08:59:36;;;;;;;8.60;1.40;;;14.80;99.90;;;;;;5046819;28;20064;-84
2022/09/24 09:02:29;;;;;;;11.73;2.55;;;14.90;99.90;;;;;;5047578;28;20116;-84
2022/09/24 09:05:11;;;;;;;17.02;1.65;;;14.90;99.90;;;;;;5030542;28;20067;-81
2022/09/24 09:07:44;;;;;;;12.13;1.85;;;14.90;99.90;;;;;;5047489;28;20064;-85
2022/09/24 09:10:14;;;;;;;10.50;1.40;;;15.00;99.90;;;;;;5047417;28;20111;-81
2022/09/24 09:12:47;;;;;;;7.85;1.20;;;15.00;99.90;;;;;;5047191;28;20088;-82
2022/09/24 09:15:23;;;;;;;9.75;1.48;;;15.00;99.90;;;;;;5047811;28;20045;-81
2022/09/24 09:18:15;;;;;;;11.50;1.60;;;15.00;99.90;;;;;;5047556;28;20554;-81
2022/09/24 09:20:46;;;;;;;8.85;1.52;;;15.00;99.90;;;;;;5047500;28;20037;-84
2022/09/24 09:23:17;;;;;;;11.18;1.92;;;15.10;99.90;;;;;;5047205;28;20399;-83
2022/09/24 09:25:58;;;;;;;14.43;1.90;;;15.10;99.90;;;;;;5084072;28;20104;-85
2022/09/24 09:28:28;;;;;;;14.35;1.35;;;15.10;99.90;;;;;;5069597;28;20131;-85
2022/09/24 09:31:12;;;;;;;11.52;1.45;;;15.10;99.90;;;;;;5071687;28;20051;-83
2022/09/24 09:33:59;;;;;;;11.90;1.27;;;15.20;99.90;;;;;;5071357;28;20060;-82
2022/09/24 09:36:52;;;;;;;14.20;1.88;;;15.30;99.90;;;;;;5089685;28;20056;-82
2022/09/24 09:39:23;;;;;;;10.75;1.27;;;15.20;99.90;;;;;;5089864;28;20040;-82
2022/09/24 09:42:00;;;;;;;12.20;2.00;;;15.20;99.90;;;;;;5090073;28;20040;-85
2022/09/24 09:44:29;;;;;;;10.50;1.75;;;15.20;99.90;;;;;;5071678;28;20440;-84
2022/09/24 09:47:04;;;;;;;9.48;1.33;;;15.20;99.90;;;;;;5070674;28;20576;-80
2022/09/24 09:49:35;;;;;;;13.65;1.55;;;15.20;99.90;;;;;;5090037;28;20403;-83
2022/09/24 09:52:12;;;;;;;12.27;1.38;;;15.10;99.90;;;;;;5089771;28;20036;-82
2022/09/24 09:54:40;;;;;;;11.93;1.67;;;15.10;99.90;;;;;;5089919;28;20061;-80
2022/09/24 09:57:12;;;;;;;9.45;1.33;;;15.10;99.90;;;;;;5089900;28;20520;-84
2022/09/24 09:59:38;;;;;;;9.55;1.63;;;15.10;99.90;;;;;;5089363;28;20495;-81
2022/09/24 10:02:13;;;;;;;10.02;1.38;;;15.20;99.90;;;;;;5089668;28;20040;-80
2022/09/24 10:04:42;;;;;;;9.93;1.25;;;15.10;99.90;;;;;;5071554;28;20056;-80
2022/09/24 10:07:09;;;;;;;12.43;1.85;;;15.10;99.90;;;;;;5089877;28;20225;-82
2022/09/24 10:09:37;;;;;;;10.23;1.58;;;15.10;99.90;;;;;;5091278;28;20080;-82
2022/09/24 10:12:16;;;;;;;14.20;1.45;;;15.30;99.90;;;;;;5093534;28;20048;-84
2022/09/24 10:14:43;;;;;;;13.32;1.63;;;15.20;99.90;;;;;;5093223;28;20406;-84
2022/09/24 10:17:18;;;;;;;12.65;1.60;;;15.20;99.90;;;;;;5058858;28;20048;-80
2022/09/24 10:19:49;;;;;;;7.47;1.13;;;15.10;99.90;;;;;;5093244;28;20048;-82
2022/09/24 10:22:25;;;;;;;14.68;2.22;;;15.10;99.90;;;;;;5093383;28;20047;-79
2022/09/24 10:24:53;;;;;;;13.10;1.73;;;15.10;99.90;;;;;;5093469;28;20043;-83
2022/09/24 10:27:31;;;;;;;9.50;1.58;;;15.10;99.90;;;;;;5105909;28;20063;-83
2022/09/24 10:30:32;;;;;;;10.65;1.48;;;15.10;99.90;;;;;;5113503;28;20612;-79
2022/09/24 10:32:47;;;;;;;9.48;1.52;;;15.10;99.90;;;;;;5113531;28;20611;-84
2022/09/24 10:35:24;;;;;;;9.95;1.65;;;15.20;99.90;;;;;;5095378;28;20119;-80
2022/09/24 10:37:55;;;;;;;7.28;1.30;;;15.20;99.90;;;;;;5113552;28;20043;-81
2022/09/24 10:40:28;;;;;;;9.35;1.25;;;15.20;99.90;;;;;;5113551;28;20394;-85
2022/09/24 10:43:02;;;;;;;11.40;1.40;;;15.30;99.90;;;;;;5113457;28;20131;-84
2022/09/24 10:45:45;;;;;;;13.55;1.38;;;15.30;99.90;;;;;;5094786;28;20044;-80
2022/09/24 10:48:25;;;;;;;7.63;1.35;;;15.50;99.90;;;;;;5112698;28;20062;-80
2022/09/24 10:51:00;;;;;;;10.10;1.58;;;15.30;99.90;;;;;;5112518;28;20036;-84
2022/09/24 10:54:01;;;;;;;4.72;1.00;;;15.30;99.90;;;;;;5092959;28;20050;-83
2022/09/24 10:56:52;;;;;;;8.38;1.05;;;15.30;99.90;;;;;;5093024;28;20502;-84
2022/09/24 10:59:50;;;;;;;5.78;0.85;;;15.30;99.90;;;;;;5010659;28;20057;-82
2022/09/24 11:02:53;;;;;;;9.05;1.13;;;15.20;99.90;;;;;;4990468;28;20169;-83
2022/09/24 11:05:23;;;;;;;9.13;1.27;;;15.20;99.90;;;;;;4991203;28;20051;-88
2022/09/24 11:08:16;;;;;;;11.38;1.27;;;15.20;99.90;;;;;;4992604;28;20428;-83
2022/09/24 11:11:02;;;;;;;6.35;0.82;;;15.20;99.90;;;;;;4996122;28;20105;-86
2022/09/24 11:13:42;;;;;;;7.80;1.25;;;15.30;99.90;;;;;;4997824;28;20951;-88
2022/09/24 11:16:19;;;;;;;7.95;1.02;;;15.20;99.90;;;;;;5009850;28;20054;-86
2022/09/24 11:19:20;;;;;;;8.52;1.45;;;15.10;99.90;;;;;;5009703;28;20081;-85
2022/09/24 11:22:05;;;;;;;8.82;1.10;;;15.10;99.90;;;;;;4970590;28;20090;-83
2022/09/24 11:24:52;;;;;;;13.00;1.25;;;15.10;99.90;;;;;;4971161;28;20611;-82
2022/09/24 11:27:32;;;;;;;9.23;1.42;;;15.10;99.90;;;;;;4970946;28;20101;-88
2022/09/24 11:30:16;;;;;;;10.93;1.33;;;15.10;99.90;;;;;;4971126;28;20051;-88
2022/09/24 11:33:23;;;;;;;7.68;1.42;;;15.10;99.90;;;;;;4970898;28;20097;-83
2022/09/24 11:35:56;;;;;;;10.95;1.80;;;15.10;99.90;;;;;;4975732;28;20066;-84
2022/09/24 11:38:32;;;;;;;13.65;2.17;;;15.20;99.90;;;;;;4982686;28;20513;-79
2022/09/24 11:41:28;;;;;;;11.43;1.52;;;15.10;99.90;;;;;;5069161;28;20123;-83
2022/09/24 11:44:12;;;;;;;10.48;1.38;;;15.10;99.90;;;;;;5069129;28;20411;-80
2022/09/24 11:47:15;;;;;;;10.45;1.52;;;15.00;99.90;;;;;;5068943;28;20102;-81
2022/09/24 11:49:57;;;;;;;9.65;1.58;;;14.90;99.90;;;;;;5068974;28;20052;-85
2022/09/24 11:52:37;;;;;;;11.23;1.50;;;14.90;99.90;;;;;;5071869;28;20483;-82
2022/09/24 11:55:33;;;;;;;11.85;1.50;;;14.90;99.90;;;;;;5068783;28;20438;-83
2022/09/24 11:58:01;;;;;;;;;;;15.10;99.90;;;;;;5083040;28;20498;-82
2022/09/24 12:00:34;;;;;;;8.00;1.48;;;15.20;99.90;;;;;;5112167;28;19920;-86
2022/09/24 12:03:13;;;;;;;12.13;1.65;;;15.30;99.90;;;;;;5110959;28;20036;-79
2022/09/24 12:05:48;;;;;;;15.27;1.50;;;15.70;99.90;;;;;;5093567;28;20635;-83
2022/09/24 12:08:16;;;;;;;16.52;2.47;;;15.90;99.90;;;;;;5111979;28;20405;-84
2022/09/24 12:11:00;;;;;;;8.40;1.42;;;16.10;99.90;;;;;;5111813;28;20051;-78
2022/09/24 12:14:19;;;;;;;11.73;2.28;;;16.20;99.90;;;;;;5111760;28;20411;-83
2022/09/24 12:16:52;;;;;;;13.25;2.05;;;16.30;99.90;;;;;;5028604;28;20924;-83
2022/09/24 12:19:23;;;;;;;8.05;1.40;;;16.30;99.90;;;;;;5028072;28;20497;-82
2022/09/24 12:21:51;;;;;;;12.00;1.50;;;16.40;99.90;;;;;;5028453;28;20053;-79
2022/09/24 12:24:36;;;;;;;8.10;1.17;;;16.20;99.90;;;;;;5028468;28;20054;-80
2022/09/24 12:27:09;;;;;;;7.47;1.30;;;16.20;99.90;;;;;;5009857;28;20068;-83
2022/09/24 12:32:55;;;;;;;8.90;1.08;;;16.10;99.90;;;;;;5027965;28;20102;-81
2022/09/24 12:35:27;;;;;;;6.40;1.30;;;16.10;99.90;;;;;;5028323;28;20049;-82
2022/09/24 12:38:07;;;;;;;10.55;1.15;;;16.00;99.90;;;;;;5028479;28;20189;-79
2022/09/24 12:40:39;;;;;;;6.68;0.98;;;16.10;99.90;;;;;;5011766;28;20057;-81
2022/09/24 12:43:17;;;;;;;7.63;1.40;;;16.10;99.90;;;;;;5028272;28;20160;-81
2022/09/24 12:45:44;;;;;;;10.63;1.25;;;16.10;99.90;;;;;;5028272;28;20493;-79
2022/09/24 12:48:15;;;;;;;10.15;1.55;;;16.00;99.90;;;;;;5028193;28;20053;-80
2022/09/24 12:50:40;;;;;;;8.50;1.00;;;16.00;99.90;;;;;;5076801;28;20463;-81
2022/09/24 12:53:23;;;;;;;5.90;0.90;;;16.00;99.90;;;;;;5110845;28;20114;-80
2022/09/24 12:55:49;;;;;;;3.97;0.98;;;16.00;99.90;;;;;;5110792;28;20047;-85
2022/09/24 12:58:41;;;;;;;10.68;1.15;;;15.90;99.90;;;;;;5110836;28;20546;-81
2022/09/24 13:01:21;;;;;;;6.93;0.80;;;15.80;99.90;;;;;;5111048;28;20126;-85
2022/09/24 13:04:01;;;;;;;12.07;1.55;;;15.90;99.90;;;;;;5110976;28;20059;-83
2022/09/24 13:06:36;;;;;;;11.40;1.40;;;15.70;99.90;;;;;;5110687;28;20035;-84
2022/09/24 13:09:21;;;;;;;10.20;1.55;;;15.70;99.90;;;;;;5110997;28;20044;-83